Latest Weather Observations for Mount Ginini

IDN60901

Issued at 10:55 pm EST Wednesday 23 April 2014 (issued every 10 minutes, with the page automatically refreshed every 10 minutes)

About weather observations | Map of Canberra area stations | Latest observations for Canberra area | Other Formats
Station Details ID: 070349 Name: MOUNT GININI AWS Lat: -35.53 Lon: 148.77 Height: 1760.0 m
Data from the previous 72 hours. | See also: Recent months at Mount Ginini
Date/Time
EST
Tmp

°C
App
Tmp
°C
Dew
Point
°C
Rel
Hum
%
Delta-T

°C
Wind Press
QNH
hPa
Press
MSL
hPa
Rain
since
9 am
mm
Dir
 
Spd
km/h
Gust
km/h
Spd
kts
Gust
kts
23/10:30pm 7.3 3.0 7.0 98 0.2 WNW 19 33 10 18 - - 2.6
23/10:00pm 7.3 3.0 6.9 97 0.2 WNW 19 35 10 19 - - 2.4
23/09:30pm 7.3 2.8 6.9 97 0.2 WNW 20 35 11 19 - - 2.4
23/09:00pm 7.4 2.9 7.1 98 0.2 NW 20 39 11 21 - - 2.4
23/08:30pm 7.4 2.9 7.1 98 0.2 NW 20 37 11 20 - - 2.4
23/08:00pm 7.1 2.8 6.8 98 0.2 NW 19 35 10 19 - - 2.4
23/07:30pm 7.2 1.9 6.9 98 0.2 NW 24 46 13 25 - - 2.4
23/07:00pm 7.2 2.3 6.9 98 0.2 NW 22 39 12 21 - - 2.4
23/06:30pm 7.1 2.6 6.8 98 0.2 NW 20 33 11 18 - - 2.4
23/06:00pm 7.0 2.1 6.7 98 0.2 NW 22 41 12 22 - - 2.4
23/05:30pm 7.0 2.4 6.6 97 0.2 WNW 20 37 11 20 - - 2.4
23/05:00pm 7.2 3.6 6.8 97 0.2 WNW 15 30 8 16 - - 2.4
23/04:30pm 7.4 4.2 6.8 96 0.3 WNW 13 24 7 13 - - 2.4
23/04:00pm 7.6 3.7 7.0 96 0.3 WNW 17 28 9 15 - - 2.4
23/03:30pm 7.9 3.7 7.3 96 0.3 WNW 19 37 10 20 - - 2.4
23/03:00pm 8.8 5.2 8.4 97 0.2 WNW 17 30 9 16 - - 2.4
23/02:30pm 8.2 3.5 7.9 98 0.2 WNW 22 44 12 24 - - 2.4
23/02:00pm 8.1 4.4 7.8 98 0.2 W 17 35 9 19 - - 2.4
23/01:30pm 9.8 5.5 9.5 98 0.2 WNW 22 41 12 22 - - 2.4
23/01:00pm 7.7 2.5 7.4 98 0.2 WNW 24 44 13 24 - - 2.4
23/12:30pm 7.2 2.7 7.1 99 0.1 W 20 48 11 26 - - 2.4
23/12:00pm 6.9 1.6 6.8 99 0.1 W 24 46 13 25 - - 2.2
23/11:30am 7.3 2.9 7.2 99 0.1 W 20 44 11 24 - - 2.0
23/11:00am 7.8 3.5 7.7 99 0.1 WNW 20 43 11 23 - - 2.0
23/10:30am 6.5 1.4 6.2 98 0.2 WNW 22 46 12 25 - - 2.0
23/10:00am 6.6 2.1 6.3 98 0.2 W 19 35 10 19 - - 2.0
23/09:30am 5.7 0.5 5.4 98 0.1 W 22 37 12 20 - - 1.6
23/09:00am 5.8 0.2 5.5 98 0.1 WSW 24 52 13 28 - - 1.2
23/08:30am 5.6 0.9 5.2 97 0.2 W 19 37 10 20 - - 0.8
23/08:00am 6.3 1.7 5.7 96 0.3 WSW 19 43 10 23 - - 0.2
23/07:30am 6.5 1.9 5.8 95 0.3 W 19 37 10 20 - - 0.2
23/07:00am 6.7 2.5 5.7 93 0.5 WSW 17 33 9 18 - - 0.0
23/06:30am 6.7 3.4 4.5 86 1.1 WSW 11 22 6 12 - - 0.0
23/06:00am 7.0 3.4 5.2 88 0.9 W 13 26 7 14 - - 0.0
23/05:30am 6.2 2.6 4.8 91 0.7 W 13 22 7 12 - - 0.0
23/05:00am 6.3 3.0 4.5 88 0.9 WNW 11 20 6 11 - - 0.0
23/04:30am 6.9 3.2 4.7 86 1.1 WNW 13 24 7 13 - - 0.0
23/04:00am 7.0 3.7 4.5 84 1.2 WNW 11 24 6 13 - - 0.0
23/03:30am 7.3 3.6 4.3 81 1.5 WNW 13 26 7 14 - - 0.0
23/03:00am 7.5 3.8 4.5 81 1.5 WNW 13 24 7 13 - - 0.0
23/02:30am 7.1 3.4 4.4 83 1.3 WNW 13 24 7 13 - - 0.0
23/02:00am 7.1 3.4 4.2 82 1.4 WNW 13 22 7 12 - - 0.0
23/01:30am 7.4 3.3 4.2 80 1.5 WNW 15 24 8 13 - - 0.0
23/01:00am 7.3 3.2 4.3 81 1.5 WNW 15 24 8 13 - - 0.0
23/12:30am 6.6 2.3 3.0 78 1.7 WNW 15 24 8 13 - - 0.0
23/12:00am 7.2 3.3 3.4 77 1.8 W 13 22 7 12 - - 0.0
 
Date/Time
EST
Tmp

°C
App
Tmp
°C
Dew
Point
°C
Rel
Hum
%
Delta-T

°C
Wind Press
QNH
hPa
Press
MSL
hPa
Rain
since
9 am
mm
Dir
 
Spd
km/h
Gust
km/h
Spd
kts
Gust
kts
22/11:30pm 7.0 3.1 3.4 78 1.7 W 13 24 7 13 - - 0.0
22/11:00pm 7.0 3.1 3.3 77 1.7 W 13 22 7 12 - - 0.0
22/10:30pm 7.4 3.3 4.5 82 1.4 W 15 24 8 13 - - 0.0
22/10:00pm 6.8 3.0 4.1 83 1.3 W 13 20 7 11 - - 0.0
22/09:30pm 7.4 3.6 4.0 79 1.6 W 13 24 7 13 - - 0.0
22/09:00pm 7.9 4.1 4.1 77 1.8 WSW 13 22 7 12 - - 0.0
22/08:30pm 7.7 3.8 3.6 75 2.0 WSW 13 19 7 10 - - 0.0
22/08:00pm 7.8 3.8 2.9 71 2.3 SW 13 20 7 11 - - 0.0
22/07:30pm 7.6 3.9 4.6 81 1.5 SW 13 20 7 11 - - 0.0
22/07:00pm 7.2 3.0 3.6 78 1.7 SSW 15 22 8 12 - - 0.0
22/06:30pm 6.5 2.7 3.8 83 1.3 SW 13 17 7 9 - - 0.0
22/06:00pm 7.0 2.5 2.3 72 2.2 SW 15 22 8 12 - - 0.0
22/05:30pm 7.6 4.9 3.5 75 2.0 SSW 7 11 4 6 - - 0.0
22/05:00pm 8.8 5.8 4.2 73 2.2 SW 9 17 5 9 - - 0.0
22/04:30pm 9.1 6.0 3.7 69 2.6 SW 9 19 5 10 - - 0.0
22/04:00pm 9.9 6.7 3.0 62 3.3 SW 9 19 5 10 - - 0.0
22/03:30pm 10.5 5.8 1.1 52 4.3 SW 15 28 8 15 - - 0.0
22/03:00pm 11.7 7.9 1.6 50 4.8 W 11 20 6 11 - - 0.0
22/02:30pm 12.9 8.6 1.0 44 5.6 WNW 13 26 7 14 - - 0.0
22/02:00pm 13.0 8.5 -0.6 39 6.2 WNW 13 26 7 14 - - 0.0
22/01:30pm 14.3 10.1 -0.9 35 6.9 W 11 26 6 14 - - 0.0
22/01:00pm 13.9 9.3 -1.3 35 6.9 WNW 13 26 7 14 - - 0.0
22/12:30pm 13.9 9.6 -1.7 34 7.0 WNW 11 20 6 11 - - 0.0
22/12:00pm 13.5 9.2 -1.3 36 6.7 WNW 11 20 6 11 - - 0.0
22/11:30am 12.7 8.3 -2.7 34 6.7 W 11 19 6 10 - - 0.0
22/11:00am 12.4 8.4 -2.6 35 6.5 W 9 19 5 10 - - 0.0
22/10:30am 12.1 7.5 -4.1 32 6.8 W 11 20 6 11 - - 0.0
22/10:00am 11.3 6.4 -3.6 35 6.2 W 13 20 7 11 - - 0.0
22/09:30am 10.3 5.5 -6.1 31 6.4 WNW 11 20 6 11 - - 0.0
22/09:00am 9.9 5.6 -4.8 35 5.9 WNW 9 15 5 8 - - 0.0
22/08:30am 9.9 5.2 -5.2 34 6.0 WNW 11 13 6 7 - - 0.0
22/08:00am 7.9 3.0 -7.4 33 5.7 W 11 13 6 7 - - 0.0
22/07:30am 6.8 1.4 -8.3 33 5.4 W 13 17 7 9 - - 0.0
22/07:00am 6.8 1.4 -8.3 33 5.4 WNW 13 19 7 10 - - 0.0
22/06:30am 6.9 1.5 -8.6 32 5.5 NW 13 19 7 10 - - 0.0
22/06:00am 7.8 2.4 -8.2 31 5.8 NW 13 19 7 10 - - 0.0
22/05:30am 8.1 3.2 -7.6 32 5.8 NW 11 19 6 10 - - 0.0
22/05:00am 8.2 3.6 -7.9 31 5.9 NW 9 13 5 7 - - 0.0
22/04:30am 8.3 3.7 -7.4 32 5.8 NW 9 13 5 7 - - 0.0
22/04:00am 8.3 3.8 -6.6 34 5.6 NW 9 11 5 6 - - 0.0
22/03:30am 8.2 3.6 -7.9 31 5.9 NW 9 13 5 7 - - 0.0
22/03:00am 8.5 3.9 -8.5 29 6.2 NW 9 13 5 7 - - 0.0
22/02:30am 8.4 3.8 -7.7 31 5.9 NW 9 15 5 8 - - 0.0
22/02:00am 8.6 4.4 -7.5 31 6.0 NW 7 11 4 6 - - 0.0
22/01:30am 8.4 4.2 -7.7 31 5.9 NW 7 11 4 6 - - 0.0
22/01:00am 8.6 4.4 -8.0 30 6.1 WNW 7 13 4 7 - - 0.0
22/12:30am 8.3 4.0 -8.7 29 6.1 WNW 7 13 4 7 - - 0.0
22/12:00am 8.2 3.2 -8.7 29 6.1 W 11 13 6 7 - - 0.0
 
Date/Time
EST
Tmp

°C
App
Tmp
°C
Dew
Point
°C
Rel
Hum
%
Delta-T

°C
Wind Press
QNH
hPa
Press
MSL
hPa
Rain
since
9 am
mm
Dir
 
Spd
km/h
Gust
km/h
Spd
kts
Gust
kts
21/11:30pm 8.0 3.3 -9.4 28 6.1 W 9 15 5 8 - - 0.0
21/11:00pm 7.8 3.1 -9.1 29 6.0 W 9 15 5 8 - - 0.0
21/10:30pm 7.8 3.2 -7.4 33 5.6 W 9 17 5 9 - - 0.0
21/10:00pm 7.8 3.0 -6.3 36 5.3 W 11 17 6 9 - - 0.0
21/09:30pm 7.8 3.0 -6.0 37 5.3 W 11 17 6 9 - - 0.0
21/09:00pm 7.8 3.0 -5.6 38 5.2 W 11 15 6 8 - - 0.0
21/08:30pm 7.7 3.3 -5.7 38 5.1 WNW 9 15 5 8 - - 0.0
21/08:00pm 7.6 3.2 -5.8 38 5.1 WNW 9 15 5 8 - - 0.0
21/07:30pm 7.3 3.0 -5.1 41 4.8 WNW 9 17 5 9 - - 0.0
21/07:00pm 7.2 2.6 -4.2 44 4.5 WNW 11 13 6 7 - - 0.0
21/06:30pm 6.1 3.1 5.8 98 0.1 WNW 11 15 6 8 - - 0.0
21/06:00pm 6.2 3.2 5.8 97 0.2 WNW 11 15 6 8 - - 0.0
21/05:30pm 6.7 4.1 6.1 96 0.3 WNW 9 13 5 7 - - 0.0
21/05:00pm 7.7 5.3 6.8 94 0.5 WNW 9 15 5 8 - - 0.0
21/04:30pm 9.5 7.0 8.4 93 0.6 WNW 11 17 6 9 - - 0.0
21/04:00pm 10.3 8.2 6.8 79 1.8 WNW 7 15 4 8 - - 0.0
21/03:30pm 10.7 7.8 6.5 75 2.2 WNW 11 19 6 10 - - 0.0
21/03:00pm 10.8 7.7 5.6 70 2.7 WNW 11 20 6 11 - - 0.0
21/02:30pm 10.8 8.4 5.1 68 2.9 WNW 7 17 4 9 - - 0.0
21/02:00pm 10.4 7.5 4.5 67 2.9 WNW 9 15 5 8 - - 0.0
21/01:30pm 11.1 8.6 3.9 61 3.6 WNW 6 13 3 7 - - 0.0
21/01:00pm 11.1 8.6 3.9 61 3.6 WNW 6 11 3 6 - - 0.0
21/12:30pm 10.4 7.9 4.5 67 2.9 NNW 7 17 4 9 - - 0.0
21/12:00pm 10.3 7.8 4.9 69 2.7 N 7 15 4 8 - - 0.0
21/11:30am 10.4 9.1 6.0 74 2.3 ENE 2 7 1 4 - - 0.0
21/11:00am 9.4 7.5 4.8 73 2.3 E 4 7 2 4 - - 0.0
21/10:30am 9.9 7.9 4.5 69 2.7 NE 4 9 2 5 - - 0.0
21/10:00am 10.6 9.2 5.4 70 2.6 E 2 6 1 3 - - 0.0
21/09:30am 9.6 6.7 -4.4 37 5.7 WNW 2 6 1 3 - - 0.0
21/09:00am 8.1 6.1 4.5 78 1.8 NNW 4 7 2 4 - - 0.0
21/08:30am 5.3 2.9 4.4 94 0.4 ENE 6 9 3 5 - - 0.0
21/08:00am 5.1 3.5 4.4 95 0.3 E 2 6 1 3 - - 0.0
21/07:30am 2.9 0.1 2.3 96 0.3 NE 6 9 3 5 - - 0.0
21/07:00am 1.9 -1.6 1.0 94 0.4 ENE 9 13 5 7 - - 0.0
21/06:30am 1.5 -1.9 -0.6 86 0.9 ESE 7 13 4 7 - - 0.0
21/06:00am 5.5 1.0 -11.5 28 5.8 SSW 7 9 4 5 - - 0.0
21/05:30am 4.8 0.6 -10.5 32 5.3 WSW 6 9 3 5 - - 0.0
21/05:00am 4.2 -0.3 -11.0 32 5.1 W 7 9 4 5 - - 0.0
21/04:30am 3.9 -0.1 -7.8 42 4.3 WNW 6 9 3 5 - - 0.0
21/04:00am 4.1 0.2 -7.0 44 4.0 NW 6 9 3 5 - - 0.0
21/03:30am 2.8 0.0 2.2 96 0.3 N 6 11 3 6 - - 0.0
21/03:00am 1.1 -2.1 0.8 98 0.1 E 7 11 4 6 - - 0.0
21/02:30am 1.4 -2.1 1.1 98 0.1 E 9 13 5 7 - - 0.0
21/02:00am 1.7 -1.8 1.4 98 0.1 ESE 9 15 5 8 - - 0.0
21/01:30am 1.9 -2.3 1.6 98 0.1 E 13 19 7 10 - - 0.0
21/01:00am 1.9 -2.3 1.5 97 0.2 E 13 19 7 10 - - 0.0
21/12:30am 2.0 -2.6 1.6 97 0.2 E 15 19 8 10 - - 0.0
21/12:00am 1.7 -2.9 1.3 97 0.2 E 15 20 8 11 - - 0.0
 
Date/Time
EST
Tmp

°C
App
Tmp
°C
Dew
Point
°C
Rel
Hum
%
Delta-T

°C
Wind Press
QNH
hPa
Press
MSL
hPa
Rain
since
9 am
mm
Dir
 
Spd
km/h
Gust
km/h
Spd
kts
Gust
kts
20/11:30pm 1.7 -3.3 1.1 96 0.3 E 17 20 9 11 - - 0.0
20/11:00pm 1.7 -3.0 1.0 95 0.3 E 15 19 8 10 - - 0.0

Latest Capital City Observations: Canberra | Sydney | Melbourne | Brisbane | Adelaide | Perth | Hobart | Darwin

Other Formats:

Comma delimited format used in spreadsheet applications
http://www.bom.gov.au/fwo/IDN60903/IDN60903.95925.axf

JavaScript Object Notation format (JSON) in row-major order
http://www.bom.gov.au/fwo/IDN60903/IDN60903.95925.json